Time;durP1;ratioP1;P1;durP2;ratioP2;P2;SDS_P1;SDS_P2;PMS_P1;PMS_P2;Temp;Humidity;BMP_temperature;BMP_pressure;BME280_temperature;BME280_humidity;BME280_pressure;Samples;Min_cycle;Max_cycle;Signal;HPM_P1;HPM_P2
2023/01/21 00:02:01;;;;;;;61.90;33.83;;;-0.40;99.90;;;;;;4909645;29;20213;-83
2023/01/21 00:04:36;;;;;;;62.20;32.42;;;-0.40;99.90;;;;;;4912812;29;20232;-81
2023/01/21 00:07:11;;;;;;;60.92;31.65;;;-0.40;99.90;;;;;;4912571;29;20296;-86
2023/01/21 00:09:54;;;;;;;59.75;32.72;;;-0.40;99.90;;;;;;4900714;29;20770;-85
2023/01/21 00:12:46;;;;;;;67.47;33.83;;;-0.30;99.90;;;;;;4909642;29;20243;-84
2023/01/21 00:15:15;;;;;;;55.78;29.95;;;-0.30;99.90;;;;;;4917686;29;20212;-84
2023/01/21 00:17:50;;;;;;;61.75;33.50;;;-0.30;99.90;;;;;;4913379;29;20231;-83
2023/01/21 00:20:19;;;;;;;56.10;28.83;;;-0.30;99.90;;;;;;4908603;29;20215;-83
2023/01/21 00:22:52;;;;;;;64.78;35.95;;;-0.30;99.90;;;;;;4921135;29;20400;-81
2023/01/21 00:25:26;;;;;;;66.47;33.15;;;-0.30;99.90;;;;;;4909949;29;20201;-85
2023/01/21 00:28:10;;;;;;;73.63;34.92;;;-0.30;99.90;;;;;;4908970;29;20205;-81
2023/01/21 00:30:44;;;;;;;69.85;30.67;;;-0.30;99.90;;;;;;4909423;29;20224;-85
2023/01/21 00:33:13;;;;;;;63.28;35.72;;;-0.30;99.90;;;;;;4903065;29;20261;-84
2023/01/21 00:36:29;;;;;;;63.05;32.88;;;-0.10;99.90;;;;;;4907620;29;20201;-83
2023/01/21 00:39:19;;;;;;;56.50;31.10;;;-0.30;99.90;;;;;;4909142;29;20219;-83
2023/01/21 00:42:03;;;;;;;61.10;31.92;;;-0.30;99.90;;;;;;4915669;29;20197;-84
2023/01/21 00:44:37;;;;;;;61.63;30.73;;;-0.30;99.90;;;;;;4922131;29;20227;-81
2023/01/21 00:47:20;;;;;;;61.50;31.08;;;-0.30;99.90;;;;;;4902235;29;20215;-84
2023/01/21 00:49:58;;;;;;;64.80;32.05;;;-0.30;99.90;;;;;;4902648;29;20209;-81
2023/01/21 00:52:25;;;;;;;57.15;30.25;;;-0.30;99.90;;;;;;4914004;29;20207;-85
2023/01/21 00:55:00;;;;;;;63.45;29.08;;;-0.40;99.90;;;;;;4910179;29;20861;-81
2023/01/21 00:57:29;;;;;;;62.80;30.48;;;-0.40;99.90;;;;;;4915448;29;20773;-82
2023/01/21 00:59:59;;;;;;;61.22;31.27;;;-0.40;99.90;;;;;;4903058;29;20292;-83
2023/01/21 01:02:26;;;;;;;62.90;31.60;;;-0.40;99.90;;;;;;4913278;29;20219;-80
2023/01/21 01:04:55;;;;;;;54.92;27.52;;;-0.40;99.90;;;;;;4903675;29;20213;-84
2023/01/21 01:07:23;;;;;;;62.53;32.33;;;-0.40;99.90;;;;;;4903790;29;20217;-83
2023/01/21 01:09:50;;;;;;;62.40;28.10;;;-0.40;99.90;;;;;;4903831;29;20201;-83
2023/01/21 01:12:19;;;;;;;77.28;34.08;;;-0.40;99.90;;;;;;4904935;29;20409;-85
2023/01/21 01:14:49;;;;;;;54.75;29.27;;;-0.40;99.90;;;;;;4904066;29;20212;-82
2023/01/21 01:17:18;;;;;;;64.45;29.77;;;-0.40;99.90;;;;;;4905468;29;20288;-83
2023/01/21 01:19:45;;;;;;;60.30;32.85;;;-0.40;99.90;;;;;;4909115;29;20221;-82
2023/01/21 01:22:12;;;;;;;76.35;34.60;;;-0.40;99.90;;;;;;4911711;29;20193;-81
2023/01/21 01:24:41;;;;;;;60.45;27.42;;;-0.40;99.90;;;;;;4903359;29;20205;-85
2023/01/21 01:27:09;;;;;;;57.35;30.30;;;-0.40;99.90;;;;;;4902947;29;20281;-82
2023/01/21 01:29:36;;;;;;;66.93;31.83;;;-0.40;99.90;;;;;;4906217;29;20418;-84
2023/01/21 01:32:03;;;;;;;57.22;30.70;;;-0.30;99.90;;;;;;4909341;29;20553;-85
2023/01/21 01:34:31;;;;;;;66.68;32.80;;;-0.30;99.90;;;;;;4913023;29;20212;-84
2023/01/21 01:36:58;;;;;;;63.60;34.20;;;-0.30;99.90;;;;;;4907460;29;20658;-83
2023/01/21 01:39:26;;;;;;;61.20;28.98;;;-0.40;99.90;;;;;;4898954;29;20265;-82
2023/01/21 01:41:54;;;;;;;68.78;35.10;;;-0.40;99.90;;;;;;4918012;29;20220;-81
2023/01/21 01:45:06;;;;;;;67.18;32.58;;;-0.40;99.90;;;;;;4904690;29;20205;-82
2023/01/21 01:47:44;;;;;;;71.30;32.70;;;-0.40;99.90;;;;;;4901913;29;20212;-82
2023/01/21 01:50:18;;;;;;;78.80;33.95;;;-0.40;99.90;;;;;;4906289;29;20547;-86
2023/01/21 01:52:47;;;;;;;73.18;31.35;;;-0.40;99.90;;;;;;4902212;29;20260;-84
2023/01/21 01:55:14;;;;;;;82.55;35.88;;;-0.50;99.90;;;;;;4902704;29;20233;-85
2023/01/21 01:57:48;;;;;;;74.57;33.17;;;-0.50;99.90;;;;;;4903797;29;20264;-82
2023/01/21 02:00:19;;;;;;;71.10;34.97;;;-0.40;99.90;;;;;;4903445;29;20430;-85
2023/01/21 02:03:43;;;;;;;77.60;31.88;;;-0.50;99.90;;;;;;4903167;29;20205;-82
2023/01/21 02:05:35;;;;;;;76.25;34.08;;;-0.50;99.90;;;;;;4907610;29;20236;-85
2023/01/21 02:08:03;;;;;;;66.40;32.47;;;-0.50;99.90;;;;;;4905670;29;20306;-83
2023/01/21 02:10:30;;;;;;;78.90;34.95;;;-0.50;99.90;;;;;;4913958;29;20512;-86
2023/01/21 02:12:58;;;;;;;68.00;32.20;;;-0.40;99.90;;;;;;4907746;29;20269;-83
2023/01/21 02:15:34;;;;;;;80.93;36.22;;;-0.40;99.90;;;;;;4909966;29;20201;-81
2023/01/21 02:18:31;;;;;;;71.57;32.80;;;-0.50;99.90;;;;;;4919900;29;20482;-85
2023/01/21 02:21:18;;;;;;;81.32;35.47;;;-0.40;99.90;;;;;;4905346;29;20243;-82
2023/01/21 02:23:57;;;;;;;71.35;36.45;;;-0.40;99.90;;;;;;4901961;29;20208;-83
2023/01/21 02:26:49;;;;;;;65.43;32.33;;;-0.40;99.90;;;;;;4923561;29;20180;-88
2023/01/21 02:29:39;;;;;;;60.53;28.98;;;-0.40;99.90;;;;;;4933924;29;20220;-83
2023/01/21 02:32:35;;;;;;;67.60;32.78;;;-0.40;99.90;;;;;;4912081;29;20224;-83
2023/01/21 02:35:12;;;;;;;59.92;27.77;;;-0.40;99.90;;;;;;4909090;29;20196;-83
2023/01/21 02:37:51;;;;;;;68.88;31.27;;;-0.40;99.90;;;;;;4932290;29;20272;-83
2023/01/21 02:40:30;;;;;;;58.03;28.52;;;-0.50;99.90;;;;;;4933751;29;20204;-84
2023/01/21 02:43:10;;;;;;;60.88;33.13;;;-0.50;99.90;;;;;;4903594;29;20213;-81
2023/01/21 02:45:42;;;;;;;70.70;30.92;;;-0.50;99.90;;;;;;4907090;29;20295;-84
2023/01/21 02:48:52;;;;;;;53.15;26.48;;;-0.50;99.90;;;;;;4909920;29;20225;-82
2023/01/21 02:51:23;;;;;;;62.50;30.10;;;-0.40;99.90;;;;;;4903629;29;20253;-83
2023/01/21 02:53:50;;;;;;;54.55;25.13;;;-0.40;99.90;;;;;;4898995;29;20486;-85
2023/01/21 02:56:22;;;;;;;60.38;28.02;;;-0.50;99.90;;;;;;4906727;29;20216;-82
2023/01/21 02:59:02;;;;;;;47.28;23.13;;;-0.50;99.90;;;;;;4903706;29;20244;-84
2023/01/21 03:01:45;;;;;;;52.88;24.92;;;-0.50;99.90;;;;;;4907001;29;20442;-85
2023/01/21 03:04:45;;;;;;;43.05;26.05;;;-0.50;99.90;;;;;;4909323;29;20220;-82
2023/01/21 03:07:34;;;;;;;59.75;26.48;;;-0.50;99.90;;;;;;4903883;29;20253;-85
2023/01/21 03:10:19;;;;;;;50.20;24.08;;;-0.40;99.90;;;;;;4896758;29;20269;-84
2023/01/21 03:16:55;;;;;;;50.28;23.70;;;-0.40;99.90;;;;;;4908852;29;20446;-79
2023/01/21 03:19:04;;;;;;;38.25;19.83;;;-0.40;99.90;;;;;;4906388;29;20319;-81
2023/01/21 03:21:33;;;;;;;39.80;18.75;;;-0.40;99.90;;;;;;4906400;29;20280;-82
2023/01/21 03:24:13;;;;;;;42.15;21.10;;;-0.40;99.90;;;;;;4907924;29;20233;-81
2023/01/21 03:26:49;;;;;;;35.42;17.75;;;-0.40;99.90;;;;;;4902878;29;20397;-84
2023/01/21 03:29:21;;;;;;;40.10;23.10;;;-0.40;99.90;;;;;;4905340;29;20213;-81
2023/01/21 03:31:55;;;;;;;39.38;21.65;;;-0.40;99.90;;;;;;4901742;29;20209;-84
2023/01/21 03:34:25;;;;;;;45.45;21.95;;;-0.40;99.90;;;;;;4909819;29;20211;-80
2023/01/21 03:37:14;;;;;;;37.45;18.77;;;-0.40;99.90;;;;;;4898069;29;20377;-80
2023/01/21 03:39:57;;;;;;;46.63;21.38;;;-0.40;99.90;;;;;;4905042;29;20216;-81
2023/01/21 03:42:26;;;;;;;39.20;21.63;;;-0.50;99.90;;;;;;4905994;29;20549;-82
2023/01/21 03:44:54;;;;;;;50.70;23.95;;;-0.50;99.90;;;;;;4903928;29;21038;-82
2023/01/21 03:47:32;;;;;;;47.53;24.25;;;-0.50;99.90;;;;;;4907420;29;20261;-83
2023/01/21 03:50:13;;;;;;;54.20;25.30;;;-0.50;99.90;;;;;;4907345;29;20216;-83
2023/01/21 03:52:43;;;;;;;42.80;22.38;;;-0.50;99.90;;;;;;4905598;29;20396;-83
2023/01/21 03:55:12;;;;;;;43.65;23.35;;;-0.40;99.90;;;;;;4914588;29;20209;-82
2023/01/21 03:57:40;;;;;;;47.72;25.50;;;-0.40;99.90;;;;;;4904060;29;20240;-81
2023/01/21 04:00:08;;;;;;;58.63;23.92;;;-0.40;99.90;;;;;;4905676;29;20208;-84
2023/01/21 04:02:41;;;;;;;39.60;21.98;;;-0.40;99.90;;;;;;4905316;29;20228;-81
2023/01/21 04:05:09;;;;;;;46.30;21.95;;;-0.50;99.90;;;;;;4891632;29;20201;-83
2023/01/21 04:07:38;;;;;;;45.70;24.45;;;-0.40;99.90;;;;;;4904681;29;20244;-82
2023/01/21 04:10:07;;;;;;;47.53;26.33;;;-0.40;99.90;;;;;;4902958;29;20201;-83
2023/01/21 04:12:33;;;;;;;42.08;23.27;;;-0.50;99.90;;;;;;4903331;29;20212;-85
2023/01/21 04:15:01;;;;;;;46.03;22.63;;;-0.50;99.90;;;;;;4911198;29;20197;-83
2023/01/21 04:17:31;;;;;;;51.28;25.98;;;-0.50;99.90;;;;;;4906057;29;20236;-84
2023/01/21 04:19:58;;;;;;;43.90;23.23;;;-0.40;99.90;;;;;;4892901;29;20237;-83
2023/01/21 04:22:26;;;;;;;43.47;24.13;;;-0.50;99.90;;;;;;4901913;29;20532;-84
2023/01/21 04:24:53;;;;;;;58.70;25.30;;;-0.40;99.90;;;;;;4903341;29;20208;-84
2023/01/21 04:27:20;;;;;;;54.58;26.48;;;-0.40;99.90;;;;;;4904292;29;20213;-84
2023/01/21 04:29:47;;;;;;;44.20;21.80;;;-0.40;99.90;;;;;;4904467;29;20221;-82
2023/01/21 04:32:16;;;;;;;42.42;20.63;;;-0.40;99.90;;;;;;4904084;29;20408;-85
2023/01/21 04:34:43;;;;;;;51.25;24.83;;;-0.40;99.90;;;;;;4906648;29;20326;-84
2023/01/21 04:37:14;;;;;;;43.03;23.85;;;-0.40;99.90;;;;;;4909023;29;20213;-86
2023/01/21 04:39:41;;;;;;;41.95;23.02;;;-0.40;99.90;;;;;;4908909;29;20212;-83
2023/01/21 04:42:08;;;;;;;38.45;22.13;;;-0.40;99.90;;;;;;4895204;29;20268;-83
2023/01/21 04:44:37;;;;;;;41.00;21.35;;;-0.40;99.90;;;;;;4903463;29;20221;-85
2023/01/21 04:47:05;;;;;;;46.83;24.67;;;-0.40;99.90;;;;;;4906291;29;20197;-83
2023/01/21 04:49:32;;;;;;;45.50;21.35;;;-0.30;99.90;;;;;;4904010;29;20209;-83
2023/01/21 04:51:59;;;;;;;42.53;23.33;;;-0.40;99.90;;;;;;4904754;29;20212;-81
2023/01/21 04:54:26;;;;;;;45.85;23.50;;;-0.30;99.90;;;;;;4909460;29;20207;-82
2023/01/21 04:56:53;;;;;;;38.75;19.45;;;-0.30;99.90;;;;;;4916546;29;20243;-82
2023/01/21 04:59:23;;;;;;;41.28;23.05;;;-0.30;99.90;;;;;;4918905;29;20544;-85
2023/01/21 05:01:51;;;;;;;47.88;24.77;;;-0.30;99.90;;;;;;4917434;29;20219;-82
2023/01/21 05:04:18;;;;;;;43.40;24.35;;;-0.20;99.90;;;;;;4921765;29;20219;-80
2023/01/21 05:06:45;;;;;;;39.15;19.45;;;-0.30;99.90;;;;;;4908553;29;20213;-82
2023/01/21 05:09:12;;;;;;;38.80;21.60;;;-0.30;99.90;;;;;;4914414;29;20415;-80
2023/01/21 05:11:42;;;;;;;47.42;21.73;;;-0.20;99.90;;;;;;4907887;29;20246;-81
2023/01/21 05:14:09;;;;;;;46.10;20.13;;;-0.30;99.90;;;;;;4898478;29;20228;-83
2023/01/21 05:16:38;;;;;;;37.42;20.60;;;-0.20;99.90;;;;;;4900003;29;20504;-81
2023/01/21 05:19:07;;;;;;;41.58;20.52;;;-0.20;99.90;;;;;;4903676;29;20240;-83
2023/01/21 05:21:34;;;;;;;43.30;22.58;;;-0.20;99.90;;;;;;4907363;29;20216;-82
2023/01/21 05:24:01;;;;;;;42.20;21.80;;;-0.20;99.90;;;;;;4902575;29;20223;-82
2023/01/21 05:26:29;;;;;;;50.42;23.70;;;-0.20;99.90;;;;;;4906023;29;20209;-83
2023/01/21 05:28:56;;;;;;;46.60;23.77;;;-0.20;99.90;;;;;;4903256;29;20221;-83
2023/01/21 05:31:24;;;;;;;40.72;21.58;;;-0.20;99.90;;;;;;4901733;29;20213;-83
2023/01/21 05:33:54;;;;;;;48.25;23.52;;;-0.10;99.90;;;;;;4903159;29;20280;-79
2023/01/21 05:36:23;;;;;;;39.22;21.50;;;-0.10;99.90;;;;;;4903703;29;20209;-81
2023/01/21 05:38:51;;;;;;;47.00;24.00;;;-0.10;99.90;;;;;;4911082;29;20840;-82
2023/01/21 05:41:19;;;;;;;37.67;19.25;;;-0.10;99.90;;;;;;4907494;29;20219;-81
2023/01/21 05:43:46;;;;;;;43.05;24.35;;;-0.10;99.90;;;;;;4916366;29;20244;-83
2023/01/21 05:46:13;;;;;;;45.50;21.08;;;-0.10;99.90;;;;;;4907649;29;20216;-79
2023/01/21 05:48:40;;;;;;;40.22;22.50;;;-0.10;99.90;;;;;;4905707;29;20221;-81
2023/01/21 05:51:09;;;;;;;37.10;19.85;;;-0.10;99.90;;;;;;4902358;29;20225;-82
2023/01/21 05:53:38;;;;;;;46.00;19.58;;;-0.10;99.90;;;;;;4906820;29;20316;-82
2023/01/21 05:56:06;;;;;;;37.15;21.50;;;-0.10;99.90;;;;;;4907652;29;20229;-80
2023/01/21 05:58:33;;;;;;;38.40;21.27;;;0.00;99.90;;;;;;4906566;29;20236;-80
2023/01/21 06:01:03;;;;;;;37.72;21.35;;;0.00;99.90;;;;;;4908353;29;20288;-84
2023/01/21 06:03:30;;;;;;;37.00;18.55;;;0.00;99.90;;;;;;4924662;29;20212;-83
2023/01/21 06:05:57;;;;;;;41.25;20.20;;;0.00;99.90;;;;;;4921637;29;20220;-80
2023/01/21 06:08:24;;;;;;;33.90;21.02;;;0.00;99.90;;;;;;4919317;29;20224;-81
2023/01/21 06:10:57;;;;;;;39.38;19.60;;;0.00;99.90;;;;;;4906421;29;20225;-84
2023/01/21 06:13:27;;;;;;;33.95;16.70;;;0.00;99.90;;;;;;4906871;29;20209;-80
2023/01/21 06:15:55;;;;;;;39.13;22.63;;;0.00;99.90;;;;;;4911128;29;20523;-83
2023/01/21 06:18:23;;;;;;;36.47;19.10;;;0.00;99.90;;;;;;4906062;29;20260;-85
2023/01/21 06:20:50;;;;;;;36.45;20.55;;;0.10;99.90;;;;;;4902090;29;20269;-81
2023/01/21 06:23:17;;;;;;;34.15;18.55;;;0.10;99.90;;;;;;4906155;29;20441;-81
2023/01/21 06:25:46;;;;;;;36.65;21.48;;;0.00;99.90;;;;;;4906927;29;20223;-82
2023/01/21 06:28:14;;;;;;;40.67;21.73;;;0.10;99.90;;;;;;4903150;29;20205;-83
2023/01/21 06:30:49;;;;;;;37.47;18.80;;;0.10;99.90;;;;;;4907455;29;20212;-80
2023/01/21 06:33:16;;;;;;;37.25;20.27;;;0.10;99.90;;;;;;4908567;29;20212;-81
2023/01/21 06:35:43;;;;;;;44.72;20.98;;;0.10;99.90;;;;;;4921396;29;20215;-81
2023/01/21 06:38:10;;;;;;;43.15;20.70;;;0.10;99.90;;;;;;4907054;29;20248;-83
2023/01/21 06:40:38;;;;;;;38.03;21.05;;;0.10;99.90;;;;;;4916581;29;20227;-82
2023/01/21 06:43:06;;;;;;;30.50;16.65;;;0.10;99.90;;;;;;4921784;29;20299;-81
2023/01/21 06:45:32;;;;;;;29.65;18.92;;;0.10;99.90;;;;;;4909647;29;20382;-80
2023/01/21 06:48:00;;;;;;;34.28;21.17;;;0.10;99.90;;;;;;4905705;29;20217;-80
2023/01/21 06:50:32;;;;;;;34.30;20.20;;;0.10;99.90;;;;;;4904317;29;20774;-81
2023/01/21 06:53:02;;;;;;;28.63;16.30;;;0.10;99.90;;;;;;4904556;29;20224;-83
2023/01/21 06:55:31;;;;;;;33.72;19.15;;;0.30;99.90;;;;;;4905228;29;20449;-84
2023/01/21 06:57:58;;;;;;;31.02;20.52;;;0.20;99.90;;;;;;4905224;29;20205;-83
2023/01/21 07:00:26;;;;;;;34.13;19.40;;;0.20;99.90;;;;;;4906677;29;20221;-84
2023/01/21 07:02:58;;;;;;;39.30;20.00;;;0.20;99.90;;;;;;4906108;29;20509;-82
2023/01/21 07:05:26;;;;;;;32.38;19.23;;;0.20;99.90;;;;;;4901385;29;20208;-84
2023/01/21 07:08:07;;;;;;;36.90;20.10;;;0.20;99.90;;;;;;4900573;29;20230;-80
2023/01/21 07:10:54;;;;;;;34.00;19.02;;;0.20;99.90;;;;;;4902049;29;20201;-79
2023/01/21 07:13:34;;;;;;;35.40;18.10;;;0.30;99.90;;;;;;4891705;29;20209;-80
2023/01/21 07:16:02;;;;;;;32.65;18.20;;;0.20;99.90;;;;;;4907812;29;20216;-81
2023/01/21 07:18:38;;;;;;;31.92;20.02;;;0.20;99.90;;;;;;4922241;29;20228;-86
2023/01/21 07:21:07;;;;;;;25.70;17.25;;;0.20;99.90;;;;;;4921629;29;20177;-87
2023/01/21 07:23:35;;;;;;;28.17;18.40;;;0.20;99.90;;;;;;4924192;29;20209;-85
2023/01/21 07:26:05;;;;;;;29.48;18.58;;;0.30;99.90;;;;;;4909057;29;20251;-82
2023/01/21 07:28:32;;;;;;;33.45;19.85;;;0.20;99.90;;;;;;4915276;29;20220;-82
2023/01/21 07:31:00;;;;;;;30.73;18.35;;;0.30;99.90;;;;;;4906532;29;20213;-81
2023/01/21 07:33:27;;;;;;;25.30;16.85;;;0.40;99.90;;;;;;4905582;29;20501;-83
2023/01/21 07:35:54;;;;;;;31.30;19.75;;;0.30;99.90;;;;;;4905864;29;20209;-82
2023/01/21 07:38:22;;;;;;;28.70;17.15;;;0.30;99.90;;;;;;4905512;29;20239;-80
2023/01/21 07:40:49;;;;;;;28.27;17.45;;;0.50;99.90;;;;;;4901647;29;20237;-81
2023/01/21 07:43:19;;;;;;;22.20;14.55;;;0.30;99.90;;;;;;4908033;29;20268;-81
2023/01/21 07:45:46;;;;;;;31.02;16.75;;;0.50;99.90;;;;;;4909340;29;20201;-82
2023/01/21 07:48:16;;;;;;;26.65;18.13;;;0.40;99.90;;;;;;4904481;29;20244;-82
2023/01/21 07:50:43;;;;;;;28.58;17.00;;;0.40;99.90;;;;;;4913852;29;20276;-81
2023/01/21 07:53:20;;;;;;;26.23;15.32;;;0.40;99.90;;;;;;4905306;29;20192;-80
2023/01/21 07:55:48;;;;;;;20.65;14.95;;;0.50;99.90;;;;;;4905249;29;20217;-83
2023/01/21 07:58:15;;;;;;;27.48;15.73;;;0.50;99.90;;;;;;4917320;29;20237;-82
2023/01/21 08:00:43;;;;;;;24.02;13.48;;;0.50;99.90;;;;;;4902369;29;20221;-84
2023/01/21 08:03:12;;;;;;;27.08;14.55;;;0.50;99.90;;;;;;4900656;29;20208;-82
2023/01/21 08:05:49;;;;;;;23.52;15.07;;;0.50;99.90;;;;;;4900984;29;20216;-81
2023/01/21 08:08:17;;;;;;;25.30;14.95;;;0.50;99.90;;;;;;4904924;29;20261;-78
2023/01/21 08:10:53;;;;;;;19.23;13.15;;;0.50;99.90;;;;;;4912916;29;20205;-82
2023/01/21 08:13:23;;;;;;;27.15;16.08;;;0.50;99.90;;;;;;4905083;29;20219;-85
2023/01/21 08:15:52;;;;;;;23.88;13.55;;;0.60;99.90;;;;;;4911805;29;20220;-83
2023/01/21 08:18:22;;;;;;;21.52;13.43;;;0.60;99.90;;;;;;4912312;29;20459;-82
2023/01/21 08:20:56;;;;;;;20.77;14.35;;;0.70;99.90;;;;;;4896518;29;20213;-86
2023/01/21 08:23:23;;;;;;;22.63;14.73;;;0.70;99.90;;;;;;4914045;29;20246;-85
2023/01/21 08:26:01;;;;;;;21.05;13.82;;;0.70;99.90;;;;;;4901942;29;20276;-85
2023/01/21 08:28:28;;;;;;;22.20;13.73;;;0.70;99.90;;;;;;4903010;29;20268;-86
2023/01/21 08:31:03;;;;;;;18.05;12.60;;;0.60;99.90;;;;;;4901864;29;20351;-86
2023/01/21 08:33:30;;;;;;;24.02;14.57;;;0.60;99.90;;;;;;4902051;29;20243;-83
2023/01/21 08:36:01;;;;;;;21.33;15.20;;;0.60;99.90;;;;;;4901778;29;20281;-82
2023/01/21 08:38:28;;;;;;;21.27;14.90;;;0.70;99.90;;;;;;4910186;29;20341;-84
2023/01/21 08:40:57;;;;;;;23.10;13.32;;;0.70;99.90;;;;;;4899325;29;20220;-83
2023/01/21 08:43:26;;;;;;;24.65;14.38;;;0.60;99.90;;;;;;4903244;29;20247;-82
2023/01/21 08:46:00;;;;;;;17.13;12.40;;;0.60;99.90;;;;;;4910641;29;20209;-80
2023/01/21 08:48:28;;;;;;;22.00;13.30;;;0.60;99.90;;;;;;4905072;29;20745;-84
2023/01/21 08:50:59;;;;;;;23.42;15.65;;;0.70;99.90;;;;;;4905874;29;20504;-83
2023/01/21 08:53:27;;;;;;;20.90;14.65;;;0.70;99.90;;;;;;4907851;29;20392;-82
2023/01/21 08:56:00;;;;;;;25.98;15.07;;;0.70;99.90;;;;;;4896318;29;20232;-81
2023/01/21 08:58:31;;;;;;;26.42;15.75;;;0.70;99.90;;;;;;4908915;29;20264;-87
2023/01/21 09:01:17;;;;;;;22.42;14.95;;;0.60;99.90;;;;;;5030081;23;20220;-89
2023/01/21 09:04:09;;;;;;;21.73;13.80;;;0.70;99.90;;;;;;4893705;29;20216;-82
2023/01/21 09:06:36;;;;;;;20.48;12.98;;;0.80;99.90;;;;;;4900749;29;20268;-87
2023/01/21 09:09:04;;;;;;;22.33;14.50;;;0.80;99.90;;;;;;4903096;29;20228;-81
2023/01/21 09:11:33;;;;;;;20.02;14.02;;;0.80;99.90;;;;;;4891626;29;20269;-81
2023/01/21 09:14:02;;;;;;;19.77;13.30;;;0.80;99.90;;;;;;5163934;23;20208;-85
2023/01/21 09:19:29;;;;;;;20.70;12.95;;;0.90;99.90;;;;;;4898035;29;20282;-90
2023/01/21 09:22:05;;;;;;;22.65;14.07;;;0.90;99.90;;;;;;4891940;29;20221;-90
2023/01/21 09:24:44;;;;;;;26.00;14.93;;;0.90;99.90;;;;;;5437700;23;20579;-91
2023/01/21 10:09:38;;;;;;;23.10;15.07;;;1.30;99.90;;;;;;5069316;23;21277;-85
2023/01/21 10:12:55;;;;;;;15.10;12.77;;;1.40;99.90;;;;;;4896155;29;20278;-88
2023/01/21 10:15:59;;;;;;;16.33;12.05;;;1.20;99.90;;;;;;5554550;23;20255;-87
2023/01/21 10:18:46;;;;;;;12.70;10.95;;;1.40;99.90;;;;;;4951430;29;20208;-89
2023/01/21 10:24:24;;;;;;;14.25;10.90;;;1.30;99.90;;;;;;4917507;29;20217;-87
2023/01/21 10:27:00;;;;;;;15.40;11.95;;;1.40;99.90;;;;;;4906435;29;20229;-90
2023/01/21 10:29:34;;;;;;;13.60;10.90;;;1.30;99.90;;;;;;5506336;23;20236;-84
2023/01/21 10:32:40;;;;;;;12.30;9.98;;;1.30;99.90;;;;;;4924055;29;20233;-88
2023/01/21 10:35:18;;;;;;;14.85;11.07;;;1.50;99.90;;;;;;4938589;29;20185;-91
2023/01/21 10:38:23;;;;;;;17.13;12.57;;;1.40;99.90;;;;;;4917479;29;20208;-88
2023/01/21 10:41:52;;;;;;;;;;;;;;;;;;;;;
2023/01/21 10:47:53;;;;;;;12.73;10.02;;;1.40;99.90;;;;;;5193208;23;20296;-87
2023/01/21 10:51:15;;;;;;;11.95;9.10;;;1.40;99.90;;;;;;4917272;29;20214;-88
2023/01/21 10:54:19;;;;;;;11.65;9.65;;;1.30;99.90;;;;;;5064382;23;20304;-86
2023/01/21 10:57:33;;;;;;;;;;;;;;;;;;;;;
2023/01/21 11:00:23;;;;;;;11.73;8.60;;;1.30;99.90;;;;;;5036439;23;20315;-89
2023/01/21 11:03:14;;;;;;;9.35;7.50;;;1.30;99.90;;;;;;4927437;29;20201;-86
2023/01/21 11:05:48;;;;;;;10.65;7.40;;;1.30;99.90;;;;;;4935720;29;20208;-88
2023/01/21 11:08:41;;;;;;;9.60;8.18;;;1.40;99.90;;;;;;4925336;29;20189;-85
2023/01/21 11:11:25;;;;;;;12.40;8.00;;;1.30;99.90;;;;;;4858312;29;20205;-87
2023/01/21 11:13:55;;;;;;;9.63;8.20;;;1.40;99.90;;;;;;5073499;23;20228;-90
2023/01/21 11:16:50;;;;;;;11.27;8.02;;;1.40;99.90;;;;;;5132928;23;20226;-88
2023/01/21 11:19:29;;;;;;;14.05;9.00;;;1.40;99.90;;;;;;4918240;29;20708;-91
2023/01/21 11:27:40;;;;;;;8.45;7.57;;;1.50;99.90;;;;;;5272688;23;20233;-87
2023/01/21 11:30:43;;;;;;;8.57;6.10;;;1.50;99.90;;;;;;5142265;23;20272;-90
2023/01/21 11:33:36;;;;;;;8.35;7.10;;;1.40;99.90;;;;;;4925923;29;20196;-90
2023/01/21 11:36:26;;;;;;;8.48;7.38;;;1.40;99.90;;;;;;4937314;29;20244;-89
2023/01/21 11:41:31;;;;;;;7.65;6.85;;;1.40;99.90;;;;;;5631438;23;20239;-90
2023/01/21 11:44:19;;;;;;;8.93;7.75;;;1.50;99.90;;;;;;5254026;23;20240;-90
2023/01/21 11:47:00;;;;;;;;;;;;;;;;;;;;;
2023/01/21 11:49:32;;;;;;;9.23;6.95;;;1.40;99.90;;;;;;4908849;29;20197;-89
2023/01/21 12:00:26;;;;;;;8.52;7.00;;;1.40;99.90;;;;;;5265888;23;20232;-88
2023/01/21 12:03:06;;;;;;;8.18;6.35;;;1.40;99.90;;;;;;5571254;23;20234;-90
2023/01/21 12:05:46;;;;;;;7.32;6.63;;;1.40;99.90;;;;;;4938973;28;20210;-89
2023/01/21 12:08:35;;;;;;;12.93;6.25;;;1.40;99.90;;;;;;4933973;29;20423;-86
2023/01/21 12:11:10;;;;;;;7.32;6.57;;;1.30;99.90;;;;;;4913156;29;20232;-88
2023/01/21 12:13:59;;;;;;;6.85;6.13;;;1.30;99.90;;;;;;4939531;29;20201;-88
2023/01/21 12:16:52;;;;;;;8.25;7.03;;;1.30;99.90;;;;;;4927431;29;20249;-83
2023/01/21 12:20:04;;;;;;;7.18;6.47;;;1.30;99.90;;;;;;4928363;29;20228;-85
2023/01/21 12:22:54;;;;;;;8.98;6.03;;;1.30;99.90;;;;;;4930011;29;20241;-83
2023/01/21 12:25:22;;;;;;;7.13;6.43;;;1.30;99.90;;;;;;4923974;29;20504;-86
2023/01/21 12:28:16;;;;;;;7.93;5.85;;;1.30;99.90;;;;;;4938421;29;20385;-89
2023/01/21 12:31:05;;;;;;;9.05;7.30;;;1.30;99.90;;;;;;4917694;29;20204;-87
2023/01/21 12:33:38;;;;;;;7.80;7.10;;;1.30;99.90;;;;;;4933251;29;20196;-86
2023/01/21 12:36:34;;;;;;;9.05;7.72;;;1.30;99.90;;;;;;4942306;29;20232;-85
2023/01/21 12:39:39;;;;;;;8.55;7.53;;;1.30;99.90;;;;;;4938164;28;20212;-86
2023/01/21 12:42:32;;;;;;;8.65;6.60;;;1.30;99.90;;;;;;4920686;29;20251;-84
2023/01/21 12:45:04;;;;;;;8.95;7.63;;;1.30;99.90;;;;;;4922960;29;20236;-87
2023/01/21 12:47:52;;;;;;;11.15;8.65;;;1.40;99.90;;;;;;4925746;29;20412;-86
2023/01/21 12:50:39;;;;;;;15.00;7.55;;;1.30;99.90;;;;;;4919886;29;20215;-79
2023/01/21 12:53:31;;;;;;;9.98;8.55;;;1.30;99.90;;;;;;4927241;29;20553;-81
2023/01/21 12:56:27;;;;;;;9.68;8.50;;;1.30;99.90;;;;;;4926043;29;20381;-81
2023/01/21 12:59:07;;;;;;;9.32;8.30;;;1.30;99.90;;;;;;4924367;29;20256;-80
2023/01/21 13:01:48;;;;;;;11.10;9.38;;;1.30;99.90;;;;;;4915339;29;20213;-80
2023/01/21 13:04:33;;;;;;;11.57;10.10;;;1.30;99.90;;;;;;4776862;29;4140857;-80
2023/01/21 13:07:39;;;;;;;12.63;8.93;;;1.30;99.90;;;;;;4916621;29;20256;-82
2023/01/21 13:10:22;;;;;;;9.45;8.25;;;1.30;99.90;;;;;;4925756;29;20228;-81
2023/01/21 13:12:57;;;;;;;12.23;9.18;;;1.30;99.90;;;;;;4921269;29;20211;-81
2023/01/21 13:15:29;;;;;;;9.88;8.77;;;1.30;99.90;;;;;;4924277;29;20399;-80
2023/01/21 13:18:00;;;;;;;9.35;8.40;;;1.30;99.90;;;;;;4928441;29;20412;-83
2023/01/21 13:20:30;;;;;;;12.77;9.82;;;1.30;99.90;;;;;;4918010;29;20235;-78
2023/01/21 13:23:17;;;;;;;12.57;9.93;;;1.30;99.90;;;;;;4920594;29;20210;-80
2023/01/21 13:26:24;;;;;;;12.90;9.77;;;1.20;99.90;;;;;;4921766;29;20213;-82
2023/01/21 13:29:13;;;;;;;12.63;9.55;;;1.20;99.90;;;;;;4921828;29;20535;-82
2023/01/21 13:31:55;;;;;;;12.65;9.63;;;1.30;99.90;;;;;;4927352;29;20212;-82
2023/01/21 13:34:33;;;;;;;12.18;10.20;;;1.20;99.90;;;;;;4925332;29;20560;-81
2023/01/21 13:37:08;;;;;;;13.70;10.02;;;1.20;99.90;;;;;;4925527;29;20275;-81
2023/01/21 13:39:46;;;;;;;10.65;9.63;;;1.30;99.90;;;;;;4925186;29;20429;-81
2023/01/21 13:42:18;;;;;;;11.40;10.05;;;1.40;99.90;;;;;;4919392;29;20243;-80
2023/01/21 13:45:19;;;;;;;10.30;9.10;;;1.40;99.90;;;;;;4928161;29;20732;-81
2023/01/21 13:47:49;;;;;;;11.25;9.60;;;1.20;99.90;;;;;;4945615;29;20207;-82
2023/01/21 13:50:33;;;;;;;9.75;8.75;;;1.30;99.90;;;;;;4939784;29;20401;-81
2023/01/21 13:53:43;;;;;;;12.13;10.40;;;1.30;99.90;;;;;;4926623;29;20584;-80
2023/01/21 13:56:51;;;;;;;14.02;9.57;;;1.30;99.90;;;;;;4925867;29;20244;-79
2023/01/21 13:59:30;;;;;;;9.60;8.40;;;1.20;99.90;;;;;;4928071;29;20210;-81
2023/01/21 14:02:29;;;;;;;11.70;8.40;;;1.30;99.90;;;;;;4933237;29;20204;-80
2023/01/21 14:05:13;;;;;;;11.60;10.40;;;1.30;99.90;;;;;;4933697;29;20219;-81
2023/01/21 14:07:56;;;;;;;9.93;8.88;;;1.30;99.90;;;;;;4932226;29;20215;-81
2023/01/21 14:10:59;;;;;;;10.68;8.48;;;1.40;99.90;;;;;;4924806;29;20195;-83
2023/01/21 14:14:04;;;;;;;10.75;8.38;;;1.30;99.90;;;;;;4930921;29;20202;-83
2023/01/21 14:16:51;;;;;;;14.25;8.98;;;1.30;99.90;;;;;;4932155;29;20272;-83
2023/01/21 14:19:21;;;;;;;12.13;9.07;;;1.20;99.90;;;;;;4927971;29;20216;-81
2023/01/21 14:22:10;;;;;;;10.55;8.93;;;1.20;99.90;;;;;;4912381;29;20307;-85
2023/01/21 14:25:24;;;;;;;14.77;10.00;;;1.20;99.90;;;;;;4923742;29;20204;-81
2023/01/21 14:28:15;;;;;;;12.27;10.38;;;1.20;99.90;;;;;;4926561;29;20204;-82
2023/01/21 14:31:08;;;;;;;12.32;9.65;;;1.20;99.90;;;;;;4931355;29;20214;-84
2023/01/21 14:34:06;;;;;;;9.85;8.65;;;1.30;99.90;;;;;;4944168;29;20193;-83
2023/01/21 14:37:00;;;;;;;12.00;9.55;;;1.30;99.90;;;;;;4943667;29;20192;-84
2023/01/21 14:39:53;;;;;;;11.30;9.88;;;1.30;99.90;;;;;;4954366;29;20227;-84